createdAt,value
2018-12-27T00:01:13.703Z,34.65
2018-12-27T00:03:45.642Z,32.95
2018-12-27T00:06:15.860Z,42.20
2018-12-27T00:08:46.530Z,35.90
2018-12-27T00:11:17.168Z,41.73
2018-12-27T00:14:08.154Z,37.60
2018-12-27T00:16:38.484Z,37.83
2018-12-27T00:19:08.778Z,38.60
2018-12-27T00:21:51.254Z,44.40
2018-12-27T00:24:16.571Z,42.08
2018-12-27T00:26:46.916Z,50.15
2018-12-27T00:29:17.182Z,48.40
2018-12-27T00:31:48.185Z,58.52
2018-12-27T00:34:40.703Z,45.95
2018-12-27T00:37:11.197Z,53.60
2018-12-27T00:39:41.702Z,69.50
2018-12-27T00:42:12.461Z,51.55
2018-12-27T00:44:44.621Z,68.42
2018-12-27T00:47:15.463Z,75.62
2018-12-27T00:49:46.268Z,58.83
2018-12-27T00:52:28.823Z,68.30
2018-12-27T00:55:00.252Z,66.95
2018-12-27T00:57:31.096Z,89.67
2018-12-27T01:00:01.584Z,86.72
2018-12-27T01:02:32.197Z,84.87
2018-12-27T01:05:02.566Z,85.03
2018-12-27T01:07:33.070Z,90.42
2018-12-27T01:10:03.739Z,103.07
2018-12-27T01:12:34.483Z,103.47
2018-12-27T01:15:04.958Z,96.22
2018-12-27T01:17:35.373Z,98.40
2018-12-27T01:20:05.863Z,95.62
2018-12-27T01:22:36.446Z,110.68
2018-12-27T01:25:06.938Z,125.18
2018-12-27T01:27:38.096Z,123.67
2018-12-27T01:30:09.011Z,101.25
2018-12-27T01:32:39.461Z,133.67
2018-12-27T01:35:09.886Z,121.70
2018-12-27T01:37:40.477Z,127.78
2018-12-27T01:40:11.310Z,99.72
2018-12-27T01:42:41.785Z,118.22
2018-12-27T01:45:12.190Z,120.53
2018-12-27T01:47:42.598Z,140.68
2018-12-27T01:50:12.961Z,130.45
2018-12-27T01:52:44.107Z,139.70
2018-12-27T01:55:14.959Z,128.27
2018-12-27T01:57:47.049Z,134.32
2018-12-27T02:00:17.685Z,128.25
2018-12-27T02:02:48.183Z,140.75
2018-12-27T02:05:18.669Z,123.82
2018-12-27T02:07:49.139Z,148.95
2018-12-27T02:10:19.665Z,140.15
2018-12-27T02:12:50.140Z,143.52
2018-12-27T02:15:20.617Z,127.60
2018-12-27T02:17:51.060Z,130.80
2018-12-27T02:20:21.707Z,133.47
2018-12-27T02:22:52.261Z,119.75
2018-12-27T02:25:41.733Z,135.75
2018-12-27T02:28:12.537Z,133.67
2018-12-27T02:30:43.016Z,140.20
2018-12-27T02:33:13.672Z,125.95
2018-12-27T02:35:44.232Z,135.82
2018-12-27T02:38:14.639Z,140.40
2018-12-27T02:40:56.369Z,134.10
2018-12-27T02:43:38.443Z,118.57
2018-12-27T02:46:08.822Z,129.00
2018-12-27T02:48:39.710Z,124.72
2018-12-27T02:51:21.870Z,126.67
2018-12-27T02:53:52.640Z,126.20
2018-12-27T02:56:23.100Z,117.08
2018-12-27T02:58:53.506Z,111.47
2018-12-27T03:01:24.064Z,129.35
2018-12-27T03:03:54.553Z,117.20
2018-12-27T03:06:24.969Z,111.95
2018-12-27T03:08:55.875Z,127.95
2018-12-27T03:11:26.608Z,128.90
2018-12-27T03:13:57.682Z,114.90
2018-12-27T03:19:09.864Z,128.40
2018-12-27T03:21:40.381Z,108.52
2018-12-27T03:24:22.842Z,117.90
2018-12-27T03:27:05.252Z,128.93
2018-12-27T03:29:35.757Z,123.30
2018-12-27T03:32:06.207Z,133.87
2018-12-27T03:34:37.006Z,133.47
2018-12-27T03:37:07.485Z,137.43
2018-12-27T03:39:38.225Z,123.70
2018-12-27T03:42:08.875Z,113.97
2018-12-27T03:44:39.343Z,95.53
2018-12-27T03:47:09.828Z,116.93
2018-12-27T03:49:40.417Z,107.37
2018-12-27T03:52:10.960Z,94.83
2018-12-27T03:54:41.790Z,104.47
2018-12-27T03:57:12.235Z,107.35
2018-12-27T03:59:42.765Z,102.78
2018-12-27T04:02:13.579Z,95.60
2018-12-27T04:04:44.052Z,104.53
2018-12-27T04:07:14.555Z,107.95
2018-12-27T04:09:45.062Z,103.07
2018-12-27T04:12:15.534Z,98.95
2018-12-27T04:14:46.135Z,89.20
2018-12-27T04:17:16.447Z,106.07
2018-12-27T04:19:46.639Z,114.30
2018-12-27T04:22:16.894Z,98.10
2018-12-27T04:24:47.119Z,76.97
2018-12-27T04:27:36.432Z,86.05
2018-12-27T04:30:07.109Z,80.25
2018-12-27T04:35:59.933Z,83.10
2018-12-27T04:38:30.448Z,77.10
2018-12-27T04:41:01.060Z,81.70
2018-12-27T04:43:51.883Z,69.35
2018-12-27T04:46:22.088Z,72.65
2018-12-27T04:49:11.499Z,72.87
2018-12-27T04:51:55.466Z,66.75
2018-12-27T04:54:25.882Z,66.35
2018-12-27T04:56:56.140Z,72.10
2018-12-27T04:59:26.326Z,74.95
2018-12-27T05:01:56.637Z,65.52
2018-12-27T05:04:32.432Z,70.30
2018-12-27T05:07:14.502Z,65.08
2018-12-27T05:09:44.729Z,59.00
2018-12-27T05:12:14.946Z,54.93
2018-12-27T05:15:04.515Z,56.50
2018-12-27T05:17:34.783Z,60.00
2018-12-27T05:20:05.039Z,55.58
2018-12-27T05:22:54.438Z,61.33
2018-12-27T05:25:24.678Z,57.35
2018-12-27T05:27:55.345Z,44.75
2018-12-27T05:30:25.937Z,51.35
2018-12-27T05:32:58.179Z,45.90
2018-12-27T05:35:28.757Z,50.80
2018-12-27T05:37:59.236Z,45.75
2018-12-27T05:40:41.277Z,50.52
2018-12-27T05:43:11.545Z,37.95
2018-12-27T05:45:41.887Z,48.78
2018-12-27T05:48:12.247Z,46.58
2018-12-27T05:50:43.034Z,46.95
2018-12-27T05:53:13.281Z,50.43
2018-12-27T05:55:55.652Z,48.92
2018-12-27T05:58:26.055Z,48.33
2018-12-27T06:00:56.277Z,43.33
2018-12-27T06:03:26.700Z,45.52
2018-12-27T06:05:57.271Z,49.25
2018-12-27T06:08:27.484Z,51.08
2018-12-27T06:10:59.489Z,56.90
2018-12-27T06:13:30.082Z,54.88
2018-12-27T06:16:00.638Z,59.65
2018-12-27T06:18:30.875Z,61.15
2018-12-27T06:21:01.521Z,59.50
2018-12-27T06:23:31.820Z,57.60
2018-12-27T06:26:02.310Z,54.90
2018-12-27T06:28:34.271Z,65.40
2018-12-27T06:31:04.591Z,60.15
2018-12-27T06:33:35.195Z,60.38
2018-12-27T06:36:06.491Z,69.65
2018-12-27T06:38:37.042Z,69.03
2018-12-27T06:41:09.007Z,77.20
2018-12-27T06:43:39.237Z,61.33
2018-12-27T06:46:09.518Z,64.53
2018-12-27T06:48:39.928Z,69.35
2018-12-27T06:51:10.592Z,69.77
2018-12-27T06:53:41.089Z,65.42
2018-12-27T06:56:11.361Z,65.67
2018-12-27T06:58:41.760Z,72.08
2018-12-27T07:01:12.280Z,57.03
2018-12-27T07:03:42.501Z,57.38
2018-12-27T07:06:12.794Z,59.65
2018-12-27T07:08:42.960Z,53.10
2018-12-27T07:11:13.199Z,59.25
2018-12-27T07:13:43.453Z,60.95
2018-12-27T07:16:13.655Z,61.13
2018-12-27T07:18:43.865Z,52.17
2018-12-27T07:21:14.095Z,58.10
2018-12-27T07:23:45.966Z,48.48
2018-12-27T07:26:16.685Z,59.90
2018-12-27T07:28:46.954Z,48.60
2018-12-27T07:31:17.208Z,48.78
2018-12-27T07:33:47.535Z,51.33
2018-12-27T07:36:17.828Z,47.85
2018-12-27T07:44:11.984Z,52.85
2018-12-27T07:46:42.217Z,54.23
2018-12-27T07:52:03.418Z,53.23
2018-12-27T07:54:33.763Z,46.73
2018-12-27T07:57:03.971Z,56.83
2018-12-27T07:59:34.320Z,55.67
2018-12-27T08:02:04.520Z,62.15
2018-12-27T08:04:34.716Z,57.20
2018-12-27T08:07:24.105Z,71.72
2018-12-27T08:09:54.401Z,62.10
2018-12-27T08:12:26.239Z,74.87
2018-12-27T08:14:56.522Z,74.00
2018-12-27T08:17:26.925Z,84.03
2018-12-27T08:19:57.117Z,82.12
2018-12-27T08:22:27.454Z,87.57
2018-12-27T08:25:16.751Z,93.42
2018-12-27T08:27:47.046Z,82.95
2018-12-27T08:30:19.324Z,81.20
2018-12-27T08:33:01.218Z,89.67
2018-12-27T08:35:31.431Z,80.12
2018-12-27T08:38:02.032Z,79.92
2018-12-27T08:40:32.391Z,87.17
2018-12-27T08:43:02.609Z,89.30
2018-12-27T08:45:33.168Z,94.37
2018-12-27T08:48:03.515Z,96.80
2018-12-27T08:50:33.741Z,91.47
2018-12-27T08:53:04.104Z,82.17
2018-12-27T08:55:34.406Z,94.80
2018-12-27T09:00:45.397Z,91.57
2018-12-27T09:03:15.681Z,93.20
2018-12-27T09:05:46.059Z,112.35
2018-12-27T09:08:16.251Z,101.45
2018-12-27T09:10:46.779Z,88.80
2018-12-27T09:13:16.962Z,98.47
2018-12-27T09:15:48.858Z,105.22
2018-12-27T09:18:19.159Z,129.87
2018-12-27T09:20:49.596Z,103.17
2018-12-27T09:23:40.533Z,90.57
2018-12-27T09:26:10.736Z,81.30
2018-12-27T09:28:42.667Z,92.05
2018-12-27T09:31:12.895Z,108.80
2018-12-27T09:33:43.117Z,89.30
2018-12-27T09:36:13.329Z,93.62
2018-12-27T09:38:43.575Z,90.47
2018-12-27T09:41:13.961Z,87.42
2018-12-27T09:43:44.262Z,91.30
2018-12-27T09:46:16.186Z,93.85
2018-12-27T09:48:46.528Z,86.02
2018-12-27T09:51:16.825Z,83.20
2018-12-27T09:53:47.152Z,76.70
2018-12-27T09:56:17.478Z,95.85
2018-12-27T09:58:47.946Z,100.80
2018-12-27T10:01:18.641Z,97.60
2018-12-27T10:03:48.859Z,85.53
2018-12-27T10:06:19.135Z,77.22
2018-12-27T10:08:49.557Z,105.58
2018-12-27T10:11:20.021Z,75.80
2018-12-27T10:13:50.243Z,92.50
2018-12-27T10:16:20.694Z,87.08
2018-12-27T10:21:59.283Z,99.28
2018-12-27T10:24:31.125Z,96.57
2018-12-27T10:27:13.472Z,85.42
2018-12-27T10:29:43.797Z,80.95
2018-12-27T10:32:14.139Z,74.05
2018-12-27T10:34:44.570Z,72.70
2018-12-27T10:37:16.517Z,91.72
2018-12-27T10:39:46.863Z,86.50
2018-12-27T10:42:17.378Z,87.45
2018-12-27T10:44:47.690Z,78.42
2018-12-27T10:47:17.985Z,71.33
2018-12-27T10:49:48.391Z,106.90
2018-12-27T10:52:18.815Z,94.20
2018-12-27T10:54:49.304Z,79.95
2018-12-27T10:57:20.203Z,88.75
2018-12-27T10:59:50.855Z,79.27
2018-12-27T11:02:22.920Z,105.07
2018-12-27T11:04:53.781Z,97.33
2018-12-27T11:07:43.053Z,91.72
2018-12-27T11:10:13.349Z,83.85
2018-12-27T11:12:43.690Z,98.58
2018-12-27T11:15:33.424Z,97.22
2018-12-27T11:18:03.882Z,91.90
2018-12-27T11:20:34.109Z,93.27
2018-12-27T11:23:23.436Z,100.65
2018-12-27T11:25:54.139Z,117.57
2018-12-27T11:28:24.387Z,106.25
2018-12-27T11:30:54.924Z,89.80
2018-12-27T11:33:38.149Z,111.15
2018-12-27T11:36:08.563Z,107.00
2018-12-27T11:38:38.822Z,94.32
2018-12-27T11:41:09.133Z,110.42
2018-12-27T11:43:41.117Z,88.25
2018-12-27T11:46:11.360Z,105.52
2018-12-27T11:48:41.562Z,99.90
2018-12-27T11:51:11.990Z,105.10
2018-12-27T11:53:42.334Z,106.67
2018-12-27T11:56:14.202Z,95.47
2018-12-27T11:58:46.533Z,93.12
2018-12-27T12:01:16.763Z,89.87
2018-12-27T12:03:47.670Z,123.85
2018-12-27T12:06:19.685Z,117.40
2018-12-27T12:08:50.159Z,115.42
2018-12-27T12:11:20.409Z,104.43
2018-12-27T12:13:50.859Z,114.15
2018-12-27T12:16:22.882Z,98.80
2018-12-27T12:18:53.068Z,114.45
2018-12-27T12:21:24.338Z,113.95
2018-12-27T12:23:54.879Z,101.30
2018-12-27T12:26:25.140Z,107.95
2018-12-27T12:28:55.423Z,115.45
2018-12-27T12:31:25.768Z,108.17
2018-12-27T12:33:56.002Z,111.65
2018-12-27T12:36:26.364Z,115.67
2018-12-27T12:38:56.589Z,126.42
2018-12-27T12:41:26.807Z,125.53
2018-12-27T12:43:57.204Z,118.65
2018-12-27T12:46:27.402Z,114.05
2018-12-27T12:48:58.035Z,119.25
2018-12-27T12:51:47.450Z,115.28
2018-12-27T12:54:17.674Z,122.80
2018-12-27T12:56:47.947Z,135.55
2018-12-27T12:59:18.283Z,115.00
2018-12-27T13:01:48.682Z,113.08
2018-12-27T13:04:18.902Z,120.22
2018-12-27T13:07:08.256Z,142.03
2018-12-27T13:09:38.469Z,115.67
2018-12-27T13:12:08.860Z,127.92
2018-12-27T13:14:39.192Z,133.52
2018-12-27T13:17:09.480Z,119.65
2018-12-27T13:19:39.762Z,121.10
2018-12-27T13:22:10.062Z,124.78
2018-12-27T13:24:41.992Z,124.18
2018-12-27T13:27:12.242Z,123.30
2018-12-27T13:29:42.954Z,133.75
2018-12-27T13:32:13.285Z,106.67
2018-12-27T13:34:43.609Z,105.72
2018-12-27T13:37:13.855Z,105.95
2018-12-27T13:39:44.390Z,118.25
2018-12-27T13:42:14.643Z,118.65
2018-12-27T13:44:44.852Z,124.53
2018-12-27T13:47:15.279Z,125.55
2018-12-27T13:49:45.589Z,113.55
2018-12-27T13:52:27.705Z,135.75
2018-12-27T13:54:58.032Z,120.35
2018-12-27T13:57:28.697Z,109.55
2018-12-27T14:00:17.999Z,119.00
2018-12-27T14:02:48.751Z,116.97
2018-12-27T14:05:19.005Z,114.05
2018-12-27T14:07:49.272Z,115.52
2018-12-27T14:10:19.620Z,112.35
2018-12-27T14:12:49.917Z,129.85
2018-12-27T14:15:21.780Z,112.45
2018-12-27T14:17:52.388Z,126.58
2018-12-27T14:20:22.596Z,103.70
2018-12-27T14:23:12.051Z,125.53
2018-12-27T14:25:42.296Z,125.85
2018-12-27T14:28:12.827Z,134.87
2018-12-27T14:30:43.069Z,110.00
2018-12-27T14:33:13.394Z,120.62
2018-12-27T14:35:43.655Z,117.45
2018-12-27T14:38:15.504Z,110.65
2018-12-27T14:40:47.453Z,114.47
2018-12-27T14:43:17.663Z,115.57
2018-12-27T14:45:47.907Z,114.40
2018-12-27T14:48:18.208Z,107.12
2018-12-27T14:50:50.235Z,111.52
2018-12-27T14:53:22.526Z,97.65
2018-12-27T14:55:52.890Z,106.75
2018-12-27T14:58:23.116Z,116.17
2018-12-27T15:00:53.716Z,104.85
2018-12-27T15:03:24.131Z,97.90
2018-12-27T15:05:54.434Z,101.72
2018-12-27T15:08:24.836Z,123.92
2018-12-27T15:10:55.174Z,98.85
2018-12-27T15:13:25.607Z,104.03
2018-12-27T15:15:56.248Z,101.18
2018-12-27T15:18:26.517Z,119.60
2018-12-27T15:21:09.042Z,108.90
2018-12-27T15:23:39.320Z,110.45
2018-12-27T15:26:09.524Z,93.10
2018-12-27T15:28:40.010Z,104.50
2018-12-27T15:31:10.195Z,103.70
2018-12-27T15:33:40.527Z,91.42
2018-12-27T15:36:10.953Z,121.87
2018-12-27T15:38:41.170Z,103.02
2018-12-27T15:41:13.031Z,95.12
2018-12-27T15:43:43.927Z,115.85
2018-12-27T15:46:14.200Z,104.32
2018-12-27T15:48:44.674Z,124.20
2018-12-27T15:51:14.957Z,125.07
2018-12-27T15:53:45.174Z,127.17
2018-12-27T15:56:15.705Z,106.43
2018-12-27T15:58:46.046Z,122.62
2018-12-27T16:01:16.261Z,121.77
2018-12-27T16:03:46.602Z,141.47
2018-12-27T16:06:17.301Z,108.78
2018-12-27T16:08:47.630Z,135.35
2018-12-27T16:11:18.149Z,132.78
2018-12-27T16:16:30.491Z,153.02
2018-12-27T16:19:00.737Z,131.78
2018-12-27T16:21:31.030Z,125.47
2018-12-27T16:24:02.968Z,133.87
2018-12-27T16:26:33.521Z,136.00
2018-12-27T16:29:22.829Z,124.40
2018-12-27T16:31:53.102Z,138.30
2018-12-27T16:34:23.298Z,143.13
2018-12-27T16:36:53.613Z,137.92
2018-12-27T16:39:24.062Z,129.07
2018-12-27T16:41:54.395Z,124.35
2018-12-27T16:44:24.831Z,130.18
2018-12-27T16:46:55.201Z,126.40
2018-12-27T16:49:25.489Z,129.25
2018-12-27T16:51:56.130Z,125.85
2018-12-27T16:54:45.551Z,108.42
2018-12-27T16:57:19.681Z,124.70
2018-12-27T16:59:53.212Z,115.65
2018-12-27T17:02:23.656Z,115.65
2018-12-27T17:04:54.062Z,110.60
2018-12-27T17:07:24.320Z,108.07
2018-12-27T17:09:56.300Z,111.52
2018-12-27T17:12:26.677Z,109.85
2018-12-27T17:14:57.109Z,119.40
2018-12-27T17:17:27.546Z,101.78
2018-12-27T17:19:57.856Z,106.92
2018-12-27T17:22:28.676Z,106.90
2018-12-27T17:24:59.560Z,123.95
2018-12-27T17:27:48.876Z,114.08
2018-12-27T17:30:19.130Z,111.50
2018-12-27T17:32:49.430Z,143.32
2018-12-27T17:35:19.716Z,125.75
2018-12-27T17:37:50.073Z,117.60
2018-12-27T17:40:20.342Z,128.05
2018-12-27T17:45:33.173Z,78.37
2018-12-27T17:48:18.701Z,100.22
2018-12-27T17:50:41.564Z,103.53
2018-12-27T17:53:12.678Z,91.97
2018-12-27T17:55:43.134Z,90.28
2018-12-27T17:58:13.892Z,95.40
2018-12-27T18:00:44.256Z,88.62
2018-12-27T18:03:14.640Z,82.02
2018-12-27T18:06:04.339Z,75.70
2018-12-27T18:08:34.627Z,87.22
2018-12-27T18:11:04.889Z,80.20
2018-12-27T18:13:35.235Z,64.67
2018-12-27T18:18:57.285Z,65.30
2018-12-27T18:21:29.632Z,72.85
2018-12-27T18:24:00.416Z,70.28
2018-12-27T18:26:30.779Z,67.45
2018-12-27T18:29:01.573Z,80.17
2018-12-27T18:31:32.116Z,77.45
2018-12-27T18:36:50.398Z,77.95
2018-12-27T18:39:33.168Z,80.47
2018-12-27T18:42:03.457Z,65.15
2018-12-27T18:44:33.719Z,67.12
2018-12-27T18:47:04.141Z,61.30
2018-12-27T18:49:34.362Z,73.07
2018-12-27T18:52:04.586Z,66.35
2018-12-27T18:54:34.875Z,63.80
2018-12-27T18:57:05.539Z,55.63
2018-12-27T18:59:35.850Z,46.60
2018-12-27T19:02:06.469Z,67.12
2018-12-27T19:04:36.834Z,57.05
2018-12-27T19:07:08.817Z,52.75
2018-12-27T19:09:39.060Z,53.00
2018-12-27T19:12:47.482Z,50.35
2018-12-27T19:15:21.280Z,43.23
2018-12-27T19:18:13.202Z,55.58
2018-12-27T19:20:45.708Z,49.90
2018-12-27T19:23:35.125Z,53.35
2018-12-27T19:26:05.645Z,66.60
2018-12-27T19:28:56.459Z,59.08
2018-12-27T19:31:26.760Z,53.17
2018-12-27T19:33:57.044Z,49.95
2018-12-27T19:36:27.299Z,48.00
2018-12-27T19:38:57.532Z,40.38
2018-12-27T19:41:27.871Z,42.48
2018-12-27T19:43:58.479Z,36.77
2018-12-27T19:46:28.814Z,52.08
2018-12-27T19:48:59.045Z,32.98
2018-12-27T19:51:48.625Z,43.13
2018-12-27T19:54:18.891Z,43.08
2018-12-27T19:56:49.147Z,33.35
2018-12-27T19:59:19.595Z,48.00
2018-12-27T20:01:49.800Z,33.88
2018-12-27T20:04:27.842Z,34.50
2018-12-27T20:06:59.767Z,31.82
2018-12-27T20:09:45.300Z,30.02
2018-12-27T20:12:15.661Z,31.50
2018-12-27T20:15:05.014Z,29.50
2018-12-27T20:17:35.288Z,35.92
2018-12-27T20:20:06.380Z,31.70
2018-12-27T20:22:36.628Z,41.58
2018-12-27T20:25:07.416Z,38.90
2018-12-27T20:27:37.733Z,31.55
2018-12-27T20:30:08.679Z,27.65
2018-12-27T20:32:38.918Z,36.30
2018-12-27T20:35:22.817Z,33.65
2018-12-27T20:37:53.039Z,29.57
2018-12-27T20:40:23.259Z,26.33
2018-12-27T20:42:53.929Z,45.80
2018-12-27T20:45:24.189Z,29.77
2018-12-27T20:48:00.217Z,38.58
2018-12-27T20:50:30.829Z,30.32
2018-12-27T20:53:01.021Z,27.20
2018-12-27T20:55:31.520Z,30.52
2018-12-27T20:58:01.782Z,22.55
2018-12-27T21:00:32.573Z,26.17
2018-12-27T21:03:03.033Z,22.32
2018-12-27T21:05:33.450Z,21.02
2018-12-27T21:08:22.809Z,25.77
2018-12-27T21:10:53.229Z,30.85
2018-12-27T21:13:23.646Z,20.90
2018-12-27T21:15:53.956Z,25.12
2018-12-27T21:18:24.210Z,18.30
2018-12-27T21:20:54.436Z,20.72
2018-12-27T21:23:24.672Z,24.20
2018-12-27T21:25:54.983Z,18.67
2018-12-27T21:28:27.009Z,17.92
2018-12-27T21:30:57.225Z,17.27
2018-12-27T21:33:27.589Z,18.48
2018-12-27T21:35:57.918Z,20.43
2018-12-27T21:38:28.174Z,22.95
2018-12-27T21:40:58.575Z,31.65
2018-12-27T21:43:28.813Z,26.77
2018-12-27T21:45:59.266Z,25.02
2018-12-27T21:48:32.702Z,23.90
2018-12-27T21:51:03.029Z,19.42
2018-12-27T21:53:52.211Z,21.17
2018-12-27T21:56:22.461Z,16.07
2018-12-27T21:58:52.683Z,17.02
2018-12-27T22:01:22.918Z,14.95
2018-12-27T22:03:53.363Z,18.67
2018-12-27T22:06:23.645Z,17.95
2018-12-27T22:08:53.965Z,14.78
2018-12-27T22:11:24.282Z,18.75
2018-12-27T22:13:54.524Z,13.15
2018-12-27T22:16:24.761Z,11.65
2018-12-27T22:18:55.036Z,14.70
2018-12-27T22:21:25.300Z,12.80
2018-12-27T22:23:55.549Z,19.98
2018-12-27T22:26:25.874Z,18.55
2018-12-27T22:28:56.720Z,13.70
2018-12-27T22:31:26.915Z,13.90
2018-12-27T22:33:57.210Z,11.70
2018-12-27T22:36:27.519Z,13.55
2018-12-27T22:39:18.500Z,9.75
2018-12-27T22:41:48.735Z,13.40
2018-12-27T22:44:19.081Z,10.32
2018-12-27T22:46:49.702Z,20.08
2018-12-27T22:49:19.954Z,15.25
2018-12-27T22:51:51.789Z,12.07
2018-12-27T22:54:22.165Z,10.65
2018-12-27T22:56:52.438Z,11.45
2018-12-27T22:59:24.651Z,11.90
2018-12-27T23:01:54.899Z,13.22
2018-12-27T23:04:25.458Z,9.75
2018-12-27T23:06:55.682Z,10.18
2018-12-27T23:09:26.255Z,20.55
2018-12-27T23:11:58.305Z,18.30
2018-12-27T23:14:28.564Z,10.20
2018-12-27T23:17:00.458Z,20.20
2018-12-27T23:19:30.829Z,6.53
2018-12-27T23:22:01.175Z,14.25
2018-12-27T23:24:31.497Z,9.20
2018-12-27T23:27:02.141Z,12.45
2018-12-27T23:29:34.173Z,9.88
2018-12-27T23:32:04.407Z,14.13
2018-12-27T23:34:34.757Z,13.58
2018-12-27T23:37:05.176Z,6.78
2018-12-27T23:39:35.543Z,10.43
2018-12-27T23:42:05.769Z,6.85
2018-12-27T23:44:36.112Z,9.58
2018-12-27T23:47:18.471Z,5.53
2018-12-27T23:49:49.076Z,14.47
2018-12-27T23:52:19.605Z,9.25
2018-12-27T23:54:51.459Z,8.68
2018-12-27T23:57:22.135Z,7.10
2018-12-27T23:59:52.484Z,6.45
